Time;durP1;ratioP1;P1;durP2;ratioP2;P2;SDS_P1;SDS_P2;PMS_P1;PMS_P2;Temp;Humidity;BMP_temperature;BMP_pressure;BME280_temperature;BME280_humidity;BME280_pressure;Samples;Min_cycle;Max_cycle;Signal;HPM_P1;HPM_P2
2022/10/29 00:01:12;;;;;;;58.90;26.67;;;;;;;-142.57;100.00;61215.63;4908073;29;20048;-84
2022/10/29 00:03:38;;;;;;;55.72;27.08;;;;;;;-142.57;100.00;61215.63;4909338;29;20043;-86
2022/10/29 00:06:09;;;;;;;62.17;27.50;;;;;;;-142.57;100.00;61215.63;4906592;29;20092;-82
2022/10/29 00:08:39;;;;;;;62.27;27.83;;;;;;;-142.57;100.00;61215.63;4966479;23;20059;-84
2022/10/29 00:11:17;;;;;;;69.90;27.70;;;;;;;-142.57;100.00;61215.63;4957248;29;20374;-84
2022/10/29 00:13:47;;;;;;;62.55;28.23;;;;;;;-142.57;100.00;61215.63;4959009;23;20052;-86
2022/10/29 00:16:21;;;;;;;56.15;27.27;;;;;;;-142.57;100.00;61215.63;4930006;29;20143;-86
2022/10/29 00:18:56;;;;;;;61.92;27.42;;;;;;;-142.57;100.00;61215.63;4931693;29;20036;-85
2022/10/29 00:21:31;;;;;;;55.22;27.55;;;;;;;-142.57;100.00;61215.63;4930333;29;20020;-85
2022/10/29 00:23:58;;;;;;;56.05;26.88;;;;;;;-142.57;100.00;61215.63;4927367;29;20036;-84
2022/10/29 00:26:24;;;;;;;57.05;27.55;;;;;;;-142.57;100.00;61215.63;4918338;29;20045;-83
2022/10/29 00:28:56;;;;;;;55.92;26.52;;;;;;;-142.57;100.00;61215.63;4917121;29;20046;-85
2022/10/29 00:31:24;;;;;;;50.35;25.17;;;;;;;-142.57;100.00;61215.63;4906905;29;20188;-85
2022/10/29 00:33:52;;;;;;;53.00;25.60;;;;;;;-142.57;100.00;61215.63;4925057;29;20084;-86
2022/10/29 00:36:36;;;;;;;61.30;26.92;;;;;;;-142.57;100.00;61215.63;4928866;29;20032;-86
2022/10/29 00:39:04;;;;;;;58.40;27.23;;;;;;;-142.57;100.00;61215.63;4938210;29;20043;-83
2022/10/29 00:41:35;;;;;;;58.83;27.27;;;;;;;-142.57;100.00;61215.63;4930274;29;20032;-85
2022/10/29 00:44:16;;;;;;;55.00;27.23;;;;;;;-142.57;100.00;61215.63;4913391;29;20131;-87
2022/10/29 00:47:04;;;;;;;54.95;26.38;;;;;;;-142.57;100.00;61215.63;4912898;29;20041;-84
2022/10/29 00:49:33;;;;;;;54.15;25.33;;;;;;;-142.57;100.00;61215.63;4909981;29;20561;-86
2022/10/29 00:54:51;;;;;;;58.45;27.15;;;;;;;-142.57;100.00;61215.63;4862883;29;20121;-85
2022/10/29 00:57:25;;;;;;;71.55;27.50;;;;;;;-142.57;100.00;61215.63;4893570;29;20049;-86
2022/10/29 00:59:51;;;;;;;60.55;26.58;;;;;;;-142.57;100.00;61215.63;4878958;29;20120;-87
2022/10/29 01:02:17;;;;;;;49.03;24.48;;;;;;;-142.57;100.00;61215.63;4903347;29;20089;-85
2022/10/29 01:04:44;;;;;;;56.75;23.90;;;;;;;-142.57;100.00;61215.63;4893032;29;20483;-86
2022/10/29 01:07:10;;;;;;;55.70;22.70;;;;;;;-142.57;100.00;61215.63;4863899;29;20053;-84
2022/10/29 01:09:35;;;;;;;60.40;24.25;;;;;;;-142.57;100.00;61215.63;4877821;29;20045;-86
2022/10/29 01:12:04;;;;;;;44.33;22.10;;;;;;;-142.57;100.00;61215.63;4863545;29;20030;-85
2022/10/29 01:15:09;;;;;;;43.85;20.98;;;;;;;-142.57;100.00;61215.63;4863903;29;20117;-87
2022/10/29 01:17:38;;;;;;;52.15;21.95;;;;;;;-142.57;100.00;61215.63;4894268;29;20041;-88
2022/10/29 01:20:25;;;;;;;47.47;21.10;;;;;;;-142.57;100.00;61215.63;4864082;29;20034;-86
2022/10/29 01:23:15;;;;;;;35.55;19.58;;;;;;;-142.57;100.00;61215.63;4863674;29;20045;-89
2022/10/29 01:26:06;;;;;;;48.75;20.02;;;;;;;-142.57;100.00;61215.63;4874629;29;20481;-83
2022/10/29 01:28:52;;;;;;;45.78;18.55;;;;;;;-142.57;100.00;61215.63;4829040;29;20094;-86
2022/10/29 01:31:23;;;;;;;53.28;20.38;;;;;;;-142.57;100.00;61215.63;4875824;29;20046;-87
2022/10/29 01:33:55;;;;;;;48.30;21.02;;;;;;;-142.57;100.00;61215.63;4863566;29;20117;-85
2022/10/29 01:36:35;;;;;;;54.42;21.95;;;;;;;-142.57;100.00;61215.63;4863892;29;20514;-85
2022/10/29 01:39:03;;;;;;;55.15;23.33;;;;;;;-142.57;100.00;61215.63;4867963;29;20066;-86
2022/10/29 01:41:49;;;;;;;44.65;23.45;;;;;;;-142.57;100.00;61215.63;4878103;29;20041;-86
2022/10/29 01:44:30;;;;;;;52.15;25.95;;;;;;;-142.57;100.00;61215.63;4879448;29;20044;-84
2022/10/29 01:47:13;;;;;;;50.83;24.20;;;;;;;-142.57;100.00;61215.63;4881981;29;20052;-84
2022/10/29 01:49:42;;;;;;;51.60;24.95;;;;;;;-142.57;100.00;61215.63;4882712;29;20026;-87
2022/10/29 01:52:12;;;;;;;55.25;23.65;;;;;;;-142.57;100.00;61215.63;4872609;29;20064;-86
2022/10/29 01:54:43;;;;;;;50.40;24.02;;;;;;;-142.57;100.00;61215.63;4862798;29;20052;-86
2022/10/29 01:57:35;;;;;;;54.75;23.13;;;;;;;-142.57;100.00;61215.63;4862173;29;20120;-83
2022/10/29 02:00:05;;;;;;;55.83;25.75;;;;;;;-142.57;100.00;61215.63;4862461;29;20109;-85
2022/10/29 02:02:55;;;;;;;58.72;25.10;;;;;;;-142.57;100.00;61215.63;4875981;29;20049;-84
2022/10/29 02:05:28;;;;;;;57.42;25.67;;;;;;;-142.57;100.00;61215.63;4875778;29;20411;-86
2022/10/29 02:08:02;;;;;;;54.28;24.58;;;;;;;-142.57;100.00;61215.63;4863808;29;20090;-85
2022/10/29 02:10:39;;;;;;;57.63;25.73;;;;;;;-142.57;100.00;61215.63;4865091;29;20033;-85
2022/10/29 02:13:08;;;;;;;58.13;26.55;;;;;;;-142.57;100.00;61215.63;4880528;29;20041;-82
2022/10/29 02:15:38;;;;;;;51.33;25.55;;;;;;;-142.57;100.00;61215.63;4869404;29;20021;-84
2022/10/29 02:18:07;;;;;;;62.78;26.00;;;;;;;-142.57;100.00;61215.63;4866216;29;20038;-85
2022/10/29 02:20:33;;;;;;;50.85;25.25;;;;;;;-142.57;100.00;61215.63;4864842;29;20049;-90
2022/10/29 02:22:59;;;;;;;62.78;26.20;;;;;;;-142.57;100.00;61215.63;4863957;29;20049;-84
2022/10/29 02:25:25;;;;;;;70.10;28.40;;;;;;;-142.57;100.00;61215.63;4864837;29;20120;-84
2022/10/29 02:27:51;;;;;;;55.45;26.17;;;;;;;-142.57;100.00;61215.63;4864236;29;20132;-83
2022/10/29 02:30:17;;;;;;;62.50;28.02;;;;;;;-142.57;100.00;61215.63;4879119;29;20034;-87
2022/10/29 02:32:42;;;;;;;66.53;27.42;;;;;;;-142.57;100.00;61215.63;4863430;29;20045;-86
2022/10/29 02:35:08;;;;;;;58.92;27.67;;;;;;;-142.57;100.00;61215.63;4864651;29;20391;-85
2022/10/29 02:37:34;;;;;;;61.95;28.40;;;;;;;-142.57;100.00;61215.63;4864584;29;20408;-85
2022/10/29 02:39:59;;;;;;;64.13;27.48;;;;;;;-142.57;100.00;61215.63;4864528;29;20038;-85
2022/10/29 02:42:25;;;;;;;60.40;26.60;;;;;;;-142.57;100.00;61215.63;4864580;29;20042;-85
2022/10/29 02:44:50;;;;;;;65.38;29.58;;;;;;;-142.57;100.00;61215.63;4864395;29;20034;-85
2022/10/29 02:47:16;;;;;;;55.50;27.27;;;;;;;-142.57;100.00;61215.63;4864049;29;20033;-85
2022/10/29 02:49:42;;;;;;;72.25;29.75;;;;;;;-142.57;100.00;61215.63;4864118;29;20038;-85
2022/10/29 02:52:07;;;;;;;62.40;27.42;;;;;;;-142.57;100.00;61215.63;4864530;29;20052;-86
2022/10/29 02:54:33;;;;;;;56.92;28.00;;;;;;;-142.57;100.00;61215.63;4864327;29;20458;-85
2022/10/29 02:57:02;;;;;;;64.93;29.10;;;;;;;-142.57;100.00;61215.63;4866199;29;20048;-85
2022/10/29 02:59:27;;;;;;;57.03;27.02;;;;;;;-142.57;100.00;61215.63;4867636;29;20045;-84
2022/10/29 03:01:53;;;;;;;65.13;28.10;;;;;;;-142.57;100.00;61215.63;4902202;29;20036;-82
2022/10/29 03:04:18;;;;;;;60.83;27.05;;;;;;;-142.57;100.00;61215.63;4882269;29;20071;-85
2022/10/29 03:06:44;;;;;;;55.25;27.90;;;;;;;-142.57;100.00;61215.63;4865534;29;20034;-85
2022/10/29 03:09:09;;;;;;;57.00;27.58;;;;;;;-142.57;100.00;61215.63;4865702;29;20064;-84
2022/10/29 03:11:35;;;;;;;57.63;26.25;;;;;;;-142.57;100.00;61215.63;4862766;29;20432;-85
2022/10/29 03:14:00;;;;;;;57.03;25.17;;;;;;;-142.57;100.00;61215.63;4864286;29;20042;-85
2022/10/29 03:16:26;;;;;;;53.47;24.20;;;;;;;-142.57;100.00;61215.63;4863980;29;20041;-87
2022/10/29 03:18:52;;;;;;;50.80;24.20;;;;;;;-142.57;100.00;61215.63;4878806;29;20093;-85
2022/10/29 03:21:18;;;;;;;59.53;25.85;;;;;;;-142.57;100.00;61215.63;4863883;29;20045;-84
2022/10/29 03:23:43;;;;;;;49.65;23.15;;;;;;;-142.57;100.00;61215.63;4865154;29;20438;-87
2022/10/29 03:26:12;;;;;;;56.45;23.50;;;;;;;-142.57;100.00;61215.63;4865857;29;20491;-87
2022/10/29 03:28:37;;;;;;;48.03;23.08;;;;;;;-142.57;100.00;61215.63;4864663;29;20060;-85
2022/10/29 03:31:04;;;;;;;47.42;21.00;;;;;;;-142.57;100.00;61215.63;4864312;29;20037;-84
2022/10/29 03:33:29;;;;;;;53.38;22.02;;;;;;;-142.57;100.00;61215.63;4864066;29;20033;-85
2022/10/29 03:35:59;;;;;;;58.22;23.85;;;;;;;-142.57;100.00;61215.63;4863906;29;20045;-85
2022/10/29 03:38:26;;;;;;;53.75;23.98;;;;;;;-142.57;100.00;61215.63;4862510;29;20377;-86
2022/10/29 03:40:51;;;;;;;50.33;23.58;;;;;;;-142.57;100.00;61215.63;4863452;29;20032;-85
2022/10/29 03:43:17;;;;;;;55.60;24.50;;;;;;;-142.57;100.00;61215.63;4864004;29;20396;-84
2022/10/29 03:45:43;;;;;;;49.58;24.73;;;;;;;-142.57;100.00;61215.63;4862508;29;20399;-85
2022/10/29 03:48:09;;;;;;;59.75;24.85;;;;;;;-142.57;100.00;61215.63;4868411;29;20177;-83
2022/10/29 03:50:34;;;;;;;55.85;24.42;;;;;;;-142.57;100.00;61215.63;4893151;29;20127;-84
2022/10/29 03:53:00;;;;;;;49.63;24.15;;;;;;;-142.57;100.00;61215.63;4863238;29;20077;-84
2022/10/29 03:55:28;;;;;;;49.30;23.50;;;;;;;-142.57;100.00;61215.63;4863622;29;20041;-85
2022/10/29 03:57:54;;;;;;;46.90;22.15;;;;;;;-142.57;100.00;61215.63;4863733;29;20113;-84
2022/10/29 04:00:19;;;;;;;53.08;23.50;;;;;;;-142.57;100.00;61215.63;4857732;29;20042;-84
2022/10/29 04:02:45;;;;;;;52.47;24.13;;;;;;;-142.57;100.00;61215.63;4856176;29;20082;-87
2022/10/29 04:05:10;;;;;;;52.92;24.30;;;;;;;-142.57;100.00;61215.63;4852882;29;20033;-86
2022/10/29 04:07:36;;;;;;;52.78;23.83;;;;;;;-142.57;100.00;61215.63;4862906;29;20038;-85
2022/10/29 04:10:02;;;;;;;52.42;25.02;;;;;;;-142.57;100.00;61215.63;4892521;29;20133;-87
2022/10/29 04:12:27;;;;;;;47.92;24.33;;;;;;;-142.57;100.00;61215.63;4862572;29;20025;-85
2022/10/29 04:14:53;;;;;;;51.08;22.45;;;;;;;-142.57;100.00;61215.63;4861975;29;20484;-82
2022/10/29 04:17:19;;;;;;;53.83;23.70;;;;;;;-142.57;100.00;61215.63;4861985;29;20042;-84
2022/10/29 04:19:46;;;;;;;53.85;24.20;;;;;;;-142.57;100.00;61215.63;4860562;29;20076;-85
2022/10/29 04:22:12;;;;;;;50.25;23.35;;;;;;;-142.57;100.00;61215.63;4862878;29;20093;-86
2022/10/29 04:24:37;;;;;;;53.75;23.23;;;;;;;-142.57;100.00;61215.63;4862422;29;20061;-88
2022/10/29 04:27:03;;;;;;;54.33;23.15;;;;;;;-142.57;100.00;61215.63;4862760;29;20408;-88
2022/10/29 04:29:28;;;;;;;47.85;23.05;;;;;;;-142.57;100.00;61215.63;4868749;29;20029;-87
2022/10/29 04:31:54;;;;;;;49.30;23.67;;;;;;;-142.57;100.00;61215.63;4882202;29;20048;-89
2022/10/29 04:34:20;;;;;;;53.60;22.23;;;;;;;-142.57;100.00;61215.63;4895353;29;20503;-91
2022/10/29 04:36:45;;;;;;;50.45;23.10;;;;;;;-142.57;100.00;61215.63;4881160;29;20559;-89
2022/10/29 04:39:11;;;;;;;53.47;24.27;;;;;;;-142.57;100.00;61215.63;4913951;29;20463;-89
2022/10/29 04:41:36;;;;;;;54.22;24.13;;;;;;;-142.57;100.00;61215.63;4884229;29;20067;-91
2022/10/29 04:44:02;;;;;;;56.92;25.35;;;;;;;-142.57;100.00;61215.63;4915096;29;20053;-91
2022/10/29 04:46:28;;;;;;;54.88;24.30;;;;;;;-142.57;100.00;61215.63;4881831;29;20448;-91
2022/10/29 04:48:53;;;;;;;64.10;26.38;;;;;;;-142.57;100.00;61215.63;4879943;29;20044;-88
2022/10/29 04:51:21;;;;;;;61.70;25.80;;;;;;;-142.57;100.00;61215.63;4879715;29;20044;-87
2022/10/29 04:53:46;;;;;;;65.10;27.38;;;;;;;-142.57;100.00;61215.63;4880335;29;20044;-87
2022/10/29 04:56:12;;;;;;;75.88;31.55;;;;;;;-142.57;100.00;61215.63;4880609;29;20030;-87
2022/10/29 04:58:37;;;;;;;68.65;30.38;;;;;;;-142.57;100.00;61215.63;4880580;29;20039;-86
2022/10/29 05:01:03;;;;;;;77.60;32.70;;;;;;;-142.57;100.00;61215.63;4880044;29;20029;-86
2022/10/29 05:03:30;;;;;;;80.40;33.10;;;;;;;-142.57;100.00;61215.63;4880135;29;20025;-88
2022/10/29 05:05:55;;;;;;;78.07;34.22;;;;;;;-142.57;100.00;61215.63;4894611;29;20040;-87
2022/10/29 05:08:21;;;;;;;74.60;33.28;;;;;;;-142.57;100.00;61215.63;4894657;29;20041;-88
2022/10/29 05:10:47;;;;;;;80.53;32.53;;;;;;;-142.57;100.00;61215.63;4909999;29;20414;-86
2022/10/29 05:13:12;;;;;;;76.22;32.47;;;;;;;-142.57;100.00;61215.63;4879794;29;20044;-86
2022/10/29 05:15:41;;;;;;;82.80;33.47;;;;;;;-142.57;100.00;61215.63;4880371;29;20029;-88
2022/10/29 05:18:08;;;;;;;79.55;33.83;;;;;;;-142.57;100.00;61215.63;4882433;29;20037;-88
2022/10/29 05:20:34;;;;;;;74.50;29.50;;;;;;;-142.57;100.00;61215.63;4898777;29;20379;-87
2022/10/29 05:23:00;;;;;;;67.30;30.25;;;;;;;-142.57;100.00;61215.63;4880781;29;20037;-87
2022/10/29 05:25:27;;;;;;;68.47;27.35;;;;;;;-142.57;100.00;61215.63;4880432;29;20041;-87
2022/10/29 05:28:20;;;;;;;65.38;28.90;;;;;;;-142.57;100.00;61215.63;4880570;29;20048;-87
2022/10/29 05:30:46;;;;;;;70.68;28.40;;;;;;;-142.57;100.00;61215.63;4879706;29;20053;-87
2022/10/29 05:33:23;;;;;;;64.68;26.98;;;;;;;-142.57;100.00;61215.63;4894432;29;20423;-86
2022/10/29 05:35:52;;;;;;;65.28;27.48;;;;;;;-142.57;100.00;61215.63;4884588;29;20131;-88
2022/10/29 05:38:18;;;;;;;61.10;26.85;;;;;;;-142.57;100.00;61215.63;4903042;29;20057;-90
2022/10/29 05:40:44;;;;;;;69.57;27.23;;;;;;;-142.57;100.00;61215.63;4885914;29;20045;-89
2022/10/29 05:43:14;;;;;;;66.38;25.00;;;;;;;-142.57;100.00;61215.63;4882437;29;20040;-91
2022/10/29 05:45:40;;;;;;;53.90;23.48;;;;;;;-142.57;100.00;61215.63;4881630;29;20101;-90
2022/10/29 05:48:09;;;;;;;58.70;24.65;;;;;;;-142.57;100.00;61215.63;4881559;29;20064;-91
2022/10/29 05:50:35;;;;;;;52.30;24.52;;;;;;;-142.57;100.00;61215.63;4881107;29;20065;-89
2022/10/29 05:53:06;;;;;;;65.40;23.23;;;;;;;-142.57;100.00;61215.63;4900848;29;20057;-90
2022/10/29 05:55:33;;;;;;;55.92;24.90;;;;;;;-142.57;100.00;61215.63;4882389;29;20514;-88
2022/10/29 05:58:01;;;;;;;66.35;25.33;;;;;;;-142.57;100.00;61215.63;4880038;29;20108;-88
2022/10/29 06:00:33;;;;;;;56.92;24.15;;;;;;;-142.57;100.00;61215.63;4906896;29;20029;-92
2022/10/29 06:03:04;;;;;;;56.58;24.95;;;;;;;-142.57;100.00;61215.63;4893195;29;20128;-93
2022/10/29 06:05:29;;;;;;;59.17;24.20;;;;;;;-142.57;100.00;61215.63;4889795;29;20041;-92
2022/10/29 06:07:57;;;;;;;62.28;24.35;;;;;;;-142.57;100.00;61215.63;4902499;29;20036;-93
2022/10/29 06:10:24;;;;;;;58.55;25.38;;;;;;;-142.57;100.00;61215.63;4883339;29;20037;-92
2022/10/29 06:12:56;;;;;;;53.88;24.08;;;;;;;-142.57;100.00;61215.63;4889216;29;20044;-92
2022/10/29 06:15:22;;;;;;;48.85;24.13;;;;;;;-142.57;100.00;61215.63;4890713;29;20037;-94
2022/10/29 06:17:58;;;;;;;51.45;24.13;;;;;;;-142.57;100.00;61215.63;4909508;29;20045;-89
2022/10/29 06:20:23;;;;;;;58.35;23.02;;;;;;;-142.57;100.00;61215.63;4894417;29;20029;-89
2022/10/29 06:22:56;;;;;;;48.15;22.50;;;;;;;-142.57;100.00;61215.63;4901645;29;20033;-91
2022/10/29 06:25:25;;;;;;;49.08;21.77;;;;;;;-142.57;100.00;61215.63;4901682;29;20029;-89
2022/10/29 06:28:13;;;;;;;48.55;21.17;;;;;;;-142.57;100.00;61215.63;4897425;29;20069;-92
2022/10/29 06:30:47;;;;;;;51.10;22.60;;;;;;;-142.57;100.00;61215.63;4889128;29;20109;-91
2022/10/29 06:33:25;;;;;;;51.88;19.90;;;;;;;-142.57;100.00;61215.63;4888716;29;20069;-90
2022/10/29 06:35:59;;;;;;;57.20;22.15;;;;;;;-142.57;100.00;61215.63;4889978;29;20116;-91
2022/10/29 06:38:30;;;;;;;50.50;21.75;;;;;;;-142.57;100.00;61215.63;4889612;29;20093;-92
2022/10/29 06:40:59;;;;;;;45.60;18.95;;;;;;;-142.57;100.00;61215.63;4902890;29;20068;-91
2022/10/29 06:43:27;;;;;;;42.08;17.95;;;;;;;-142.57;100.00;61215.63;4902209;29;20487;-91
2022/10/29 06:45:58;;;;;;;37.90;16.25;;;;;;;-142.57;100.00;61215.63;4894544;29;20066;-90
2022/10/29 06:48:27;;;;;;;32.08;14.93;;;;;;;-142.57;100.00;61215.63;4893832;29;20037;-90
2022/10/29 06:50:54;;;;;;;34.80;15.40;;;;;;;-142.57;100.00;61215.63;4983561;23;20052;-90
2022/10/29 06:53:25;;;;;;;35.45;14.82;;;;;;;-142.57;100.00;61215.63;4933919;29;20138;-88
2022/10/29 06:56:12;;;;;;;41.78;13.50;;;;;;;-142.57;100.00;61215.63;4920318;29;20037;-87
2022/10/29 06:58:47;;;;;;;29.27;13.35;;;;;;;-142.57;100.00;61215.63;4914991;29;20053;-87
2022/10/29 07:01:27;;;;;;;25.27;13.13;;;;;;;-142.57;100.00;61215.63;4913669;29;20399;-91
2022/10/29 07:03:55;;;;;;;30.50;13.38;;;;;;;-142.57;100.00;61215.63;4909736;29;20041;-88
2022/10/29 07:06:25;;;;;;;29.70;12.45;;;;;;;-142.57;100.00;61215.63;4911275;29;20037;-92
2022/10/29 07:08:55;;;;;;;33.20;13.68;;;;;;;-142.57;100.00;61215.63;4913373;29;20063;-91
2022/10/29 07:11:26;;;;;;;32.58;14.18;;;;;;;-142.57;100.00;61215.63;4893143;29;20044;-92
2022/10/29 07:13:52;;;;;;;29.33;14.38;;;;;;;-142.57;100.00;61215.63;4922488;29;20035;-92
2022/10/29 07:16:38;;;;;;;38.95;15.63;;;;;;;-142.57;100.00;61215.63;4893255;29;20044;-89
2022/10/29 07:19:04;;;;;;;35.00;15.75;;;;;;;-142.57;100.00;61215.63;4938206;29;20024;-91
2022/10/29 07:21:32;;;;;;;35.92;16.42;;;;;;;-142.57;100.00;61215.63;4914306;29;20029;-92
2022/10/29 07:24:01;;;;;;;37.95;17.15;;;;;;;-142.57;100.00;61215.63;4916976;29;20032;-91
2022/10/29 07:26:28;;;;;;;43.55;16.40;;;;;;;-142.57;100.00;61215.63;4903390;29;20045;-92
2022/10/29 07:28:58;;;;;;;40.42;15.68;;;;;;;-142.57;100.00;61215.63;4901670;29;20044;-91
2022/10/29 07:31:24;;;;;;;40.15;16.30;;;;;;;-142.57;100.00;61215.63;4908366;29;20103;-91
2022/10/29 07:33:49;;;;;;;35.00;15.80;;;;;;;-142.57;100.00;61215.63;4909649;29;20423;-92
2022/10/29 07:36:15;;;;;;;37.67;15.50;;;;;;;-142.57;100.00;61215.63;4902563;29;20039;-88
2022/10/29 07:38:40;;;;;;;26.35;14.45;;;;;;;-142.57;100.00;61215.63;4900966;29;20051;-90
2022/10/29 07:41:06;;;;;;;35.60;14.55;;;;;;;-142.57;100.00;61215.63;4902078;29;20037;-92
2022/10/29 07:43:32;;;;;;;41.55;14.13;;;;;;;-142.57;100.00;61215.63;4908003;29;20043;-89
2022/10/29 07:45:58;;;;;;;31.73;13.32;;;;;;;-142.57;100.00;61215.63;4907387;29;20036;-91
2022/10/29 07:48:26;;;;;;;24.88;12.68;;;;;;;-142.57;100.00;61215.63;4904603;29;20048;-93
2022/10/29 07:50:52;;;;;;;29.48;12.75;;;;;;;-142.57;100.00;61215.63;4912195;29;20044;-90
2022/10/29 07:53:18;;;;;;;26.42;12.40;;;;;;;-142.57;100.00;61215.63;4924557;29;20038;-93
2022/10/29 07:55:51;;;;;;;27.15;11.82;;;;;;;-142.57;100.00;61215.63;4912002;29;20039;-88
2022/10/29 07:58:16;;;;;;;31.55;12.45;;;;;;;-142.57;100.00;61215.63;4902041;29;20029;-90
2022/10/29 08:00:42;;;;;;;33.25;12.95;;;;;;;-142.57;100.00;61215.63;4893651;29;20409;-91
2022/10/29 08:03:10;;;;;;;25.40;11.50;;;;;;;-142.57;100.00;61215.63;4904148;29;20036;-91
2022/10/29 08:05:36;;;;;;;25.88;12.43;;;;;;;-142.57;100.00;61215.63;4892050;29;20028;-91
2022/10/29 08:08:06;;;;;;;22.63;11.30;;;;;;;-142.57;100.00;61215.63;4911455;29;20059;-93
2022/10/29 08:10:56;;;;;;;42.75;11.70;;;;;;;-142.57;100.00;61215.63;4908292;29;20048;-93
2022/10/29 08:13:30;;;;;;;23.33;10.75;;;;;;;-142.57;100.00;61215.63;4915043;29;20048;-91
2022/10/29 08:16:04;;;;;;;28.85;12.05;;;;;;;-142.57;100.00;61215.63;4916257;29;20017;-92
2022/10/29 08:18:30;;;;;;;26.98;12.45;;;;;;;-142.57;100.00;61215.63;4913684;29;20493;-91
2022/10/29 08:21:02;;;;;;;32.25;13.55;;;;;;;-142.57;100.00;61215.63;4912481;29;20045;-90
2022/10/29 08:23:27;;;;;;;42.53;14.70;;;;;;;-142.57;100.00;61215.63;4904976;29;20045;-91
2022/10/29 08:25:53;;;;;;;36.95;16.55;;;;;;;-142.57;100.00;61215.63;4901501;29;20032;-91
2022/10/29 08:28:18;;;;;;;38.58;16.58;;;;;;;-142.57;100.00;61215.63;4886193;29;20070;-90
2022/10/29 08:30:48;;;;;;;39.00;15.93;;;;;;;-142.57;100.00;61215.63;4918841;29;20040;-91
2022/10/29 08:33:13;;;;;;;44.95;15.73;;;;;;;-142.57;100.00;61215.63;4905043;29;20447;-91
2022/10/29 08:35:39;;;;;;;41.15;16.48;;;;;;;-142.57;100.00;61215.63;4908078;29;20048;-87
2022/10/29 08:38:05;;;;;;;47.30;17.30;;;;;;;-142.57;100.00;61215.63;4925124;29;20039;-89
2022/10/29 08:40:38;;;;;;;42.72;16.48;;;;;;;-142.57;100.00;61215.63;4920412;29;20040;-90
2022/10/29 08:43:37;;;;;;;46.72;16.52;;;;;;;-142.57;100.00;61215.63;4917187;29;20386;-91
2022/10/29 08:46:04;;;;;;;43.97;17.73;;;;;;;-142.57;100.00;61215.63;4918359;29;20064;-89
2022/10/29 08:48:32;;;;;;;48.88;18.35;;;;;;;-142.57;100.00;61215.63;4918192;29;20040;-90
2022/10/29 08:51:21;;;;;;;47.05;18.33;;;;;;;-142.57;100.00;61215.63;4918333;29;20040;-90
2022/10/29 08:53:50;;;;;;;46.95;18.30;;;;;;;-142.57;100.00;61215.63;4919142;29;20032;-91
2022/10/29 08:56:25;;;;;;;44.50;18.08;;;;;;;-142.57;100.00;61215.63;4919367;29;20036;-90
2022/10/29 08:59:00;;;;;;;34.75;15.55;;;;;;;-142.57;100.00;61215.63;4923628;29;20462;-90
2022/10/29 09:01:26;;;;;;;38.67;16.15;;;;;;;-142.57;100.00;61215.63;4937991;29;20104;-91
2022/10/29 09:03:52;;;;;;;42.88;15.88;;;;;;;-142.57;100.00;61215.63;4926743;29;20366;-92
2022/10/29 09:06:43;;;;;;;31.75;15.70;;;;;;;-142.57;100.00;61215.63;4920437;29;20380;-90
2022/10/29 09:09:40;;;;;;;44.00;15.32;;;;;;;-142.57;100.00;61215.63;4918702;29;20179;-91
2022/10/29 09:12:38;;;;;;;43.03;15.48;;;;;;;-142.57;100.00;61215.63;4922865;29;20028;-92
2022/10/29 09:15:28;;;;;;;37.63;16.40;;;;;;;-142.57;100.00;61215.63;4899484;29;20088;-88
2022/10/29 09:18:31;;;;;;;32.60;15.45;;;;;;;-142.57;100.00;61215.63;4922435;29;20123;-90
2022/10/29 09:20:56;;;;;;;40.30;17.67;;;;;;;-142.57;100.00;61215.63;4910875;29;20096;-92
2022/10/29 09:23:56;;;;;;;39.03;17.70;;;;;;;-142.57;100.00;61215.63;4912312;29;20070;-91
2022/10/29 09:26:26;;;;;;;46.03;17.77;;;;;;;-142.57;100.00;61215.63;4901951;29;20046;-92
2022/10/29 09:29:03;;;;;;;44.58;18.80;;;;;;;-142.57;100.00;61215.63;4919940;29;20040;-90
2022/10/29 09:31:57;;;;;;;42.58;18.17;;;;;;;-142.57;100.00;61215.63;4903550;29;20037;-91
2022/10/29 09:34:31;;;;;;;45.55;18.58;;;;;;;-142.57;100.00;61215.63;4911799;29;20159;-91
2022/10/29 09:36:58;;;;;;;45.88;18.50;;;;;;;-142.57;100.00;61215.63;4908451;29;20131;-91
2022/10/29 09:39:32;;;;;;;38.20;17.55;;;;;;;-142.57;100.00;61215.63;4902042;29;20043;-90
2022/10/29 09:42:00;;;;;;;48.97;17.67;;;;;;;-142.57;100.00;61215.63;4902008;29;20033;-91
2022/10/29 09:44:38;;;;;;;39.97;18.63;;;;;;;-142.57;100.00;61215.63;4899970;29;20363;-90
2022/10/29 09:47:30;;;;;;;35.75;16.58;;;;;;;-142.57;100.00;61215.63;4903212;29;20498;-90
2022/10/29 09:50:12;;;;;;;41.85;18.30;;;;;;;-142.57;100.00;61215.63;4901014;29;20116;-90
2022/10/29 09:52:42;;;;;;;42.03;16.77;;;;;;;-142.57;100.00;61215.63;4906841;29;20039;-90
2022/10/29 09:55:17;;;;;;;37.53;17.42;;;;;;;-142.57;100.00;61215.63;4917305;29;20184;-91
2022/10/29 09:57:42;;;;;;;35.45;16.10;;;;;;;-142.57;100.00;61215.63;4918450;29;20052;-89
2022/10/29 10:00:27;;;;;;;48.88;17.33;;;;;;;-142.57;100.00;61215.63;4916574;29;20036;-89
2022/10/29 10:03:05;;;;;;;47.92;16.50;;;;;;;-142.57;100.00;61215.63;4912751;29;20040;-89
2022/10/29 10:05:33;;;;;;;42.50;17.20;;;;;;;-142.57;100.00;61215.63;4900809;29;20032;-89
2022/10/29 10:08:09;;;;;;;42.00;16.85;;;;;;;-142.57;100.00;61215.63;4900095;29;20089;-90
2022/10/29 10:10:49;;;;;;;48.47;18.33;;;;;;;-142.57;100.00;61215.63;4929714;29;20048;-90
2022/10/29 10:13:15;;;;;;;37.67;16.52;;;;;;;-142.57;100.00;61215.63;4901759;29;20037;-88
2022/10/29 10:15:57;;;;;;;33.58;16.17;;;;;;;-142.57;100.00;61215.63;4911763;29;20088;-89
2022/10/29 10:18:32;;;;;;;;;;;;;;;-142.57;100.00;61215.63;4909551;29;20111;-89
2022/10/29 10:21:06;;;;;;;41.53;16.92;;;;;;;-142.57;100.00;61215.63;4914285;29;19923;-90
2022/10/29 10:23:45;;;;;;;33.28;16.00;;;;;;;-142.57;100.00;61215.63;4899540;29;20044;-89
2022/10/29 10:26:42;;;;;;;36.50;16.67;;;;;;;-142.57;100.00;61215.63;4916029;29;20044;-89
2022/10/29 10:29:23;;;;;;;36.80;17.98;;;;;;;-142.57;100.00;61215.63;4912783;29;20040;-90
2022/10/29 10:32:15;;;;;;;39.55;17.25;;;;;;;-142.57;100.00;61215.63;4909324;29;20036;-91
2022/10/29 10:34:41;;;;;;;40.20;18.80;;;;;;;-142.57;100.00;61215.63;4913819;29;20047;-89
2022/10/29 10:37:17;;;;;;;47.88;21.50;;;;;;;-142.57;100.00;61215.63;4908920;29;20029;-88
2022/10/29 10:39:51;;;;;;;52.47;22.00;;;;;;;-142.57;100.00;61215.63;4904688;29;20123;-91
2022/10/29 10:42:19;;;;;;;55.65;23.42;;;;;;;-142.57;100.00;61215.63;4907902;29;20071;-86
2022/10/29 10:44:51;;;;;;;39.10;20.92;;;;;;;-142.57;100.00;61215.63;4918917;29;20155;-93
2022/10/29 10:47:23;;;;;;;39.53;20.77;;;;;;;-142.57;100.00;61215.63;4913339;29;20044;-88
2022/10/29 10:49:49;;;;;;;45.13;20.77;;;;;;;-142.57;100.00;61215.63;4916912;29;20195;-89
2022/10/29 10:52:21;;;;;;;60.50;25.35;;;;;;;-142.57;100.00;61215.63;4903586;29;20060;-91
2022/10/29 10:55:08;;;;;;;46.42;22.45;;;;;;;-142.57;100.00;61215.63;4917051;29;20040;-93
2022/10/29 10:57:47;;;;;;;57.80;25.65;;;;;;;-142.57;100.00;61215.63;4912452;29;20127;-89
2022/10/29 11:00:18;;;;;;;40.10;18.20;;;;;;;-142.57;100.00;61215.63;4908145;29;20069;-90
2022/10/29 11:03:05;;;;;;;48.50;20.95;;;;;;;-142.57;100.00;61215.63;4912424;29;20531;-89
2022/10/29 11:05:55;;;;;;;53.78;20.35;;;;;;;-142.57;100.00;61215.63;4921565;29;20036;-88
2022/10/29 11:08:59;;;;;;;48.67;22.58;;;;;;;-142.57;100.00;61215.63;4917027;29;20091;-88
2022/10/29 11:11:29;;;;;;;36.30;18.27;;;;;;;-142.57;100.00;61215.63;4882413;29;20055;-88
2022/10/29 11:14:03;;;;;;;45.53;18.83;;;;;;;-142.57;100.00;61215.63;4914693;29;20047;-89
2022/10/29 11:16:38;;;;;;;36.45;16.73;;;;;;;-142.57;100.00;61215.63;4909270;29;20044;-87